sensor_id;sensor_type;location;lat;lon;timestamp;P1;durP1;ratioP1;P2;durP2;ratioP2
58208;SDS011;44006;52.028;4.696;2024-01-15T00:00:33;16.35;;;2.70;;
58208;SDS011;44006;52.028;4.696;2024-01-15T00:02:59;14.95;;;2.22;;
58208;SDS011;44006;52.028;4.696;2024-01-15T00:05:24;16.15;;;2.25;;
58208;SDS011;44006;52.028;4.696;2024-01-15T00:07:49;24.20;;;2.33;;
58208;SDS011;44006;52.028;4.696;2024-01-15T00:10:15;18.83;;;1.95;;
58208;SDS011;44006;52.028;4.696;2024-01-15T00:12:40;24.98;;;1.83;;
58208;SDS011;44006;52.028;4.696;2024-01-15T00:15:05;15.77;;;1.83;;
58208;SDS011;44006;52.028;4.696;2024-01-15T00:17:31;12.55;;;2.17;;
58208;SDS011;44006;52.028;4.696;2024-01-15T00:19:56;16.45;;;1.90;;
58208;SDS011;44006;52.028;4.696;2024-01-15T00:22:21;12.85;;;1.85;;
58208;SDS011;44006;52.028;4.696;2024-01-15T00:24:46;15.55;;;2.22;;
58208;SDS011;44006;52.028;4.696;2024-01-15T00:27:12;16.58;;;2.28;;
58208;SDS011;44006;52.028;4.696;2024-01-15T00:29:37;13.25;;;1.60;;
58208;SDS011;44006;52.028;4.696;2024-01-15T00:32:03;15.48;;;1.90;;
58208;SDS011;44006;52.028;4.696;2024-01-15T00:34:28;17.02;;;1.83;;
58208;SDS011;44006;52.028;4.696;2024-01-15T00:36:53;12.50;;;2.70;;
58208;SDS011;44006;52.028;4.696;2024-01-15T00:39:20;21.52;;;2.10;;
58208;SDS011;44006;52.028;4.696;2024-01-15T00:41:45;16.40;;;1.60;;
58208;SDS011;44006;52.028;4.696;2024-01-15T00:44:10;18.63;;;1.75;;
58208;SDS011;44006;52.028;4.696;2024-01-15T00:46:43;13.93;;;1.55;;
58208;SDS011;44006;52.028;4.696;2024-01-15T00:49:10;17.13;;;2.05;;
58208;SDS011;44006;52.028;4.696;2024-01-15T00:51:35;15.68;;;1.63;;
58208;SDS011;44006;52.028;4.696;2024-01-15T00:54:00;15.10;;;2.03;;
58208;SDS011;44006;52.028;4.696;2024-01-15T00:56:25;20.52;;;2.05;;
58208;SDS011;44006;52.028;4.696;2024-01-15T00:58:51;12.68;;;1.75;;
58208;SDS011;44006;52.028;4.696;2024-01-15T01:01:16;16.55;;;2.15;;
58208;SDS011;44006;52.028;4.696;2024-01-15T01:03:42;16.40;;;1.77;;
58208;SDS011;44006;52.028;4.696;2024-01-15T01:06:07;18.67;;;1.83;;
58208;SDS011;44006;52.028;4.696;2024-01-15T01:08:33;19.45;;;1.77;;
58208;SDS011;44006;52.028;4.696;2024-01-15T01:10:59;17.45;;;1.73;;
58208;SDS011;44006;52.028;4.696;2024-01-15T01:13:24;13.48;;;1.70;;
58208;SDS011;44006;52.028;4.696;2024-01-15T01:15:49;12.77;;;1.85;;
58208;SDS011;44006;52.028;4.696;2024-01-15T01:18:15;13.45;;;1.67;;
58208;SDS011;44006;52.028;4.696;2024-01-15T01:20:40;17.55;;;1.70;;
58208;SDS011;44006;52.028;4.696;2024-01-15T01:23:05;15.30;;;1.80;;
58208;SDS011;44006;52.028;4.696;2024-01-15T01:25:30;16.85;;;1.85;;
58208;SDS011;44006;52.028;4.696;2024-01-15T01:27:56;18.17;;;2.00;;
58208;SDS011;44006;52.028;4.696;2024-01-15T01:30:21;15.57;;;1.92;;
58208;SDS011;44006;52.028;4.696;2024-01-15T01:32:46;20.20;;;1.90;;
58208;SDS011;44006;52.028;4.696;2024-01-15T01:35:12;12.13;;;1.83;;
58208;SDS011;44006;52.028;4.696;2024-01-15T01:37:37;14.27;;;1.95;;
58208;SDS011;44006;52.028;4.696;2024-01-15T01:40:03;13.25;;;1.98;;
58208;SDS011;44006;52.028;4.696;2024-01-15T01:42:28;16.02;;;1.80;;
58208;SDS011;44006;52.028;4.696;2024-01-15T01:44:53;7.95;;;1.40;;
58208;SDS011;44006;52.028;4.696;2024-01-15T01:47:19;8.05;;;1.38;;
58208;SDS011;44006;52.028;4.696;2024-01-15T01:49:45;12.80;;;1.92;;
58208;SDS011;44006;52.028;4.696;2024-01-15T01:52:10;7.50;;;1.17;;
58208;SDS011;44006;52.028;4.696;2024-01-15T01:54:36;12.35;;;1.25;;
58208;SDS011;44006;52.028;4.696;2024-01-15T01:57:02;9.73;;;1.13;;
58208;SDS011;44006;52.028;4.696;2024-01-15T01:59:28;7.18;;;1.23;;
58208;SDS011;44006;52.028;4.696;2024-01-15T02:01:54;14.52;;;1.45;;
58208;SDS011;44006;52.028;4.696;2024-01-15T02:04:19;6.72;;;1.13;;
58208;SDS011;44006;52.028;4.696;2024-01-15T02:06:44;9.30;;;1.40;;
58208;SDS011;44006;52.028;4.696;2024-01-15T02:09:10;7.30;;;1.33;;
58208;SDS011;44006;52.028;4.696;2024-01-15T02:11:36;11.23;;;1.50;;
58208;SDS011;44006;52.028;4.696;2024-01-15T02:14:02;14.75;;;1.85;;
58208;SDS011;44006;52.028;4.696;2024-01-15T02:16:27;13.57;;;1.73;;
58208;SDS011;44006;52.028;4.696;2024-01-15T02:18:52;15.43;;;1.80;;
58208;SDS011;44006;52.028;4.696;2024-01-15T02:21:18;11.40;;;1.20;;
58208;SDS011;44006;52.028;4.696;2024-01-15T02:23:43;13.07;;;1.50;;
58208;SDS011;44006;52.028;4.696;2024-01-15T02:26:08;10.80;;;1.38;;
58208;SDS011;44006;52.028;4.696;2024-01-15T02:28:34;6.13;;;0.93;;
58208;SDS011;44006;52.028;4.696;2024-01-15T02:30:59;9.43;;;1.42;;
58208;SDS011;44006;52.028;4.696;2024-01-15T02:33:24;8.60;;;0.98;;
58208;SDS011;44006;52.028;4.696;2024-01-15T02:35:53;10.43;;;0.85;;
58208;SDS011;44006;52.028;4.696;2024-01-15T02:38:18;8.18;;;1.08;;
58208;SDS011;44006;52.028;4.696;2024-01-15T02:40:44;8.20;;;1.05;;
58208;SDS011;44006;52.028;4.696;2024-01-15T02:43:10;8.15;;;1.05;;
58208;SDS011;44006;52.028;4.696;2024-01-15T02:45:36;3.72;;;0.90;;
58208;SDS011;44006;52.028;4.696;2024-01-15T02:48:02;4.28;;;0.80;;
58208;SDS011;44006;52.028;4.696;2024-01-15T02:50:27;7.70;;;0.77;;
58208;SDS011;44006;52.028;4.696;2024-01-15T02:52:54;6.75;;;1.20;;
58208;SDS011;44006;52.028;4.696;2024-01-15T02:55:19;11.25;;;0.88;;
58208;SDS011;44006;52.028;4.696;2024-01-15T02:57:44;9.10;;;0.80;;
58208;SDS011;44006;52.028;4.696;2024-01-15T03:00:10;5.50;;;0.98;;
58208;SDS011;44006;52.028;4.696;2024-01-15T03:02:36;11.85;;;1.13;;
58208;SDS011;44006;52.028;4.696;2024-01-15T03:05:04;11.43;;;1.08;;
58208;SDS011;44006;52.028;4.696;2024-01-15T03:07:29;6.32;;;0.80;;
58208;SDS011;44006;52.028;4.696;2024-01-15T03:09:55;7.03;;;1.13;;
58208;SDS011;44006;52.028;4.696;2024-01-15T03:12:21;11.68;;;1.00;;
58208;SDS011;44006;52.028;4.696;2024-01-15T03:14:46;4.72;;;1.15;;
58208;SDS011;44006;52.028;4.696;2024-01-15T03:17:12;10.27;;;0.90;;
58208;SDS011;44006;52.028;4.696;2024-01-15T03:19:37;6.50;;;0.95;;
58208;SDS011;44006;52.028;4.696;2024-01-15T03:22:02;9.90;;;1.30;;
58208;SDS011;44006;52.028;4.696;2024-01-15T03:24:28;8.45;;;1.20;;
58208;SDS011;44006;52.028;4.696;2024-01-15T03:26:54;10.63;;;1.17;;
58208;SDS011;44006;52.028;4.696;2024-01-15T03:29:19;15.75;;;1.45;;
58208;SDS011;44006;52.028;4.696;2024-01-15T03:31:44;6.95;;;1.20;;
58208;SDS011;44006;52.028;4.696;2024-01-15T03:34:09;12.20;;;1.27;;
58208;SDS011;44006;52.028;4.696;2024-01-15T03:36:35;9.90;;;1.27;;
58208;SDS011;44006;52.028;4.696;2024-01-15T03:39:00;13.43;;;1.55;;
58208;SDS011;44006;52.028;4.696;2024-01-15T03:41:25;10.05;;;1.00;;
58208;SDS011;44006;52.028;4.696;2024-01-15T03:43:50;13.57;;;1.38;;
58208;SDS011;44006;52.028;4.696;2024-01-15T03:46:16;9.52;;;1.08;;
58208;SDS011;44006;52.028;4.696;2024-01-15T03:48:41;8.95;;;1.10;;
58208;SDS011;44006;52.028;4.696;2024-01-15T03:51:06;10.15;;;1.15;;
58208;SDS011;44006;52.028;4.696;2024-01-15T03:53:31;9.02;;;1.05;;
58208;SDS011;44006;52.028;4.696;2024-01-15T03:55:57;4.88;;;0.70;;
58208;SDS011;44006;52.028;4.696;2024-01-15T03:58:22;4.97;;;0.65;;
58208;SDS011;44006;52.028;4.696;2024-01-15T04:00:48;3.33;;;0.50;;
58208;SDS011;44006;52.028;4.696;2024-01-15T04:03:13;3.03;;;0.47;;
58208;SDS011;44006;52.028;4.696;2024-01-15T04:05:38;5.85;;;0.80;;
58208;SDS011;44006;52.028;4.696;2024-01-15T04:08:04;3.85;;;0.50;;
58208;SDS011;44006;52.028;4.696;2024-01-15T04:10:29;4.07;;;0.50;;
58208;SDS011;44006;52.028;4.696;2024-01-15T04:12:54;3.38;;;0.60;;
58208;SDS011;44006;52.028;4.696;2024-01-15T04:15:20;3.38;;;0.65;;
58208;SDS011;44006;52.028;4.696;2024-01-15T04:17:45;4.15;;;0.40;;
58208;SDS011;44006;52.028;4.696;2024-01-15T04:20:10;4.05;;;0.50;;
58208;SDS011;44006;52.028;4.696;2024-01-15T04:22:36;4.65;;;0.50;;
58208;SDS011;44006;52.028;4.696;2024-01-15T04:25:01;4.45;;;0.60;;
58208;SDS011;44006;52.028;4.696;2024-01-15T04:27:26;5.30;;;0.75;;
58208;SDS011;44006;52.028;4.696;2024-01-15T04:29:53;10.02;;;0.80;;
58208;SDS011;44006;52.028;4.696;2024-01-15T04:32:18;4.38;;;0.47;;
58208;SDS011;44006;52.028;4.696;2024-01-15T04:34:43;5.63;;;1.00;;
58208;SDS011;44006;52.028;4.696;2024-01-15T04:37:09;5.43;;;0.68;;
58208;SDS011;44006;52.028;4.696;2024-01-15T04:39:35;5.38;;;0.60;;
58208;SDS011;44006;52.028;4.696;2024-01-15T04:42:00;9.52;;;0.73;;
58208;SDS011;44006;52.028;4.696;2024-01-15T04:44:26;5.65;;;0.70;;
58208;SDS011;44006;52.028;4.696;2024-01-15T04:46:51;5.70;;;0.80;;
58208;SDS011;44006;52.028;4.696;2024-01-15T04:49:16;8.57;;;0.68;;
58208;SDS011;44006;52.028;4.696;2024-01-15T04:51:41;7.80;;;1.10;;
58208;SDS011;44006;52.028;4.696;2024-01-15T04:54:07;6.78;;;0.90;;
58208;SDS011;44006;52.028;4.696;2024-01-15T04:56:32;6.90;;;1.27;;
58208;SDS011;44006;52.028;4.696;2024-01-15T04:58:57;10.65;;;1.00;;
58208;SDS011;44006;52.028;4.696;2024-01-15T05:01:23;13.80;;;1.35;;
58208;SDS011;44006;52.028;4.696;2024-01-15T05:03:48;10.75;;;1.23;;
58208;SDS011;44006;52.028;4.696;2024-01-15T05:06:14;13.40;;;1.13;;
58208;SDS011;44006;52.028;4.696;2024-01-15T05:08:40;7.78;;;0.82;;
58208;SDS011;44006;52.028;4.696;2024-01-15T05:11:05;7.75;;;1.17;;
58208;SDS011;44006;52.028;4.696;2024-01-15T05:13:30;7.20;;;0.98;;
58208;SDS011;44006;52.028;4.696;2024-01-15T05:15:55;5.05;;;0.57;;
58208;SDS011;44006;52.028;4.696;2024-01-15T05:18:20;7.93;;;1.02;;
58208;SDS011;44006;52.028;4.696;2024-01-15T05:20:46;5.32;;;1.30;;
58208;SDS011;44006;52.028;4.696;2024-01-15T05:23:11;8.02;;;1.10;;
58208;SDS011;44006;52.028;4.696;2024-01-15T05:25:36;8.30;;;1.10;;
58208;SDS011;44006;52.028;4.696;2024-01-15T05:28:02;7.63;;;1.08;;
58208;SDS011;44006;52.028;4.696;2024-01-15T05:30:27;11.13;;;1.30;;
58208;SDS011;44006;52.028;4.696;2024-01-15T05:32:52;8.73;;;1.60;;
58208;SDS011;44006;52.028;4.696;2024-01-15T05:35:18;6.50;;;1.30;;
58208;SDS011;44006;52.028;4.696;2024-01-15T05:37:43;6.50;;;1.48;;
58208;SDS011;44006;52.028;4.696;2024-01-15T05:40:09;7.28;;;1.40;;
58208;SDS011;44006;52.028;4.696;2024-01-15T05:42:35;8.98;;;1.85;;
58208;SDS011;44006;52.028;4.696;2024-01-15T05:45:00;6.05;;;1.50;;
58208;SDS011;44006;52.028;4.696;2024-01-15T05:47:27;10.68;;;1.52;;
58208;SDS011;44006;52.028;4.696;2024-01-15T05:49:53;8.63;;;1.30;;
58208;SDS011;44006;52.028;4.696;2024-01-15T05:52:19;9.07;;;1.30;;
58208;SDS011;44006;52.028;4.696;2024-01-15T05:54:45;7.88;;;1.25;;
58208;SDS011;44006;52.028;4.696;2024-01-15T05:57:11;8.15;;;1.70;;
58208;SDS011;44006;52.028;4.696;2024-01-15T05:59:36;9.57;;;1.85;;
58208;SDS011;44006;52.028;4.696;2024-01-15T06:02:01;8.85;;;1.98;;
58208;SDS011;44006;52.028;4.696;2024-01-15T06:04:26;6.50;;;1.77;;
58208;SDS011;44006;52.028;4.696;2024-01-15T06:06:52;10.75;;;1.80;;
58208;SDS011;44006;52.028;4.696;2024-01-15T06:09:17;7.88;;;1.60;;
58208;SDS011;44006;52.028;4.696;2024-01-15T06:11:43;4.72;;;1.45;;
58208;SDS011;44006;52.028;4.696;2024-01-15T06:14:09;7.53;;;1.30;;
58208;SDS011;44006;52.028;4.696;2024-01-15T06:16:34;10.00;;;1.60;;
58208;SDS011;44006;52.028;4.696;2024-01-15T06:18:59;5.60;;;1.42;;
58208;SDS011;44006;52.028;4.696;2024-01-15T06:21:24;8.68;;;1.40;;
58208;SDS011;44006;52.028;4.696;2024-01-15T06:23:53;7.47;;;1.52;;
58208;SDS011;44006;52.028;4.696;2024-01-15T06:26:20;10.55;;;1.42;;
58208;SDS011;44006;52.028;4.696;2024-01-15T06:28:46;5.97;;;1.25;;
58208;SDS011;44006;52.028;4.696;2024-01-15T06:31:11;12.02;;;1.60;;
58208;SDS011;44006;52.028;4.696;2024-01-15T06:33:36;10.18;;;1.45;;
58208;SDS011;44006;52.028;4.696;2024-01-15T06:36:04;9.02;;;1.30;;
58208;SDS011;44006;52.028;4.696;2024-01-15T06:38:29;5.25;;;0.75;;
58208;SDS011;44006;52.028;4.696;2024-01-15T06:40:54;5.70;;;0.65;;
58208;SDS011;44006;52.028;4.696;2024-01-15T06:43:22;7.60;;;1.00;;
58208;SDS011;44006;52.028;4.696;2024-01-15T06:45:48;7.75;;;0.95;;
58208;SDS011;44006;52.028;4.696;2024-01-15T06:48:13;5.45;;;0.93;;
58208;SDS011;44006;52.028;4.696;2024-01-15T06:50:42;3.40;;;0.60;;
58208;SDS011;44006;52.028;4.696;2024-01-15T06:53:07;7.72;;;0.80;;
58208;SDS011;44006;52.028;4.696;2024-01-15T06:55:32;8.13;;;0.68;;
58208;SDS011;44006;52.028;4.696;2024-01-15T06:58:00;1.80;;;0.50;;
58208;SDS011;44006;52.028;4.696;2024-01-15T07:00:25;2.80;;;0.60;;
58208;SDS011;44006;52.028;4.696;2024-01-15T07:02:51;5.47;;;1.00;;
58208;SDS011;44006;52.028;4.696;2024-01-15T07:05:17;6.30;;;0.77;;
58208;SDS011;44006;52.028;4.696;2024-01-15T07:07:42;6.38;;;1.10;;
58208;SDS011;44006;52.028;4.696;2024-01-15T07:10:07;5.65;;;0.80;;
58208;SDS011;44006;52.028;4.696;2024-01-15T07:12:32;6.10;;;1.02;;
58208;SDS011;44006;52.028;4.696;2024-01-15T07:14:58;7.00;;;1.15;;
58208;SDS011;44006;52.028;4.696;2024-01-15T07:17:24;5.50;;;1.02;;
58208;SDS011;44006;52.028;4.696;2024-01-15T07:19:51;9.80;;;1.00;;
58208;SDS011;44006;52.028;4.696;2024-01-15T07:22:16;5.35;;;0.80;;
58208;SDS011;44006;52.028;4.696;2024-01-15T07:24:42;6.35;;;1.08;;
58208;SDS011;44006;52.028;4.696;2024-01-15T07:27:07;3.53;;;1.00;;
58208;SDS011;44006;52.028;4.696;2024-01-15T07:29:34;10.00;;;1.13;;
58208;SDS011;44006;52.028;4.696;2024-01-15T07:32:01;5.97;;;1.02;;
58208;SDS011;44006;52.028;4.696;2024-01-15T07:34:26;3.55;;;0.93;;
58208;SDS011;44006;52.028;4.696;2024-01-15T07:36:51;4.35;;;1.20;;
58208;SDS011;44006;52.028;4.696;2024-01-15T07:39:17;3.97;;;0.73;;
58208;SDS011;44006;52.028;4.696;2024-01-15T07:41:42;7.20;;;1.30;;
58208;SDS011;44006;52.028;4.696;2024-01-15T07:44:07;8.25;;;1.00;;
58208;SDS011;44006;52.028;4.696;2024-01-15T07:46:33;5.22;;;0.80;;
58208;SDS011;44006;52.028;4.696;2024-01-15T07:48:58;7.07;;;1.10;;
58208;SDS011;44006;52.028;4.696;2024-01-15T07:51:30;5.55;;;0.85;;
58208;SDS011;44006;52.028;4.696;2024-01-15T07:53:55;7.75;;;1.15;;
58208;SDS011;44006;52.028;4.696;2024-01-15T07:56:23;8.45;;;1.40;;
58208;SDS011;44006;52.028;4.696;2024-01-15T07:58:48;6.18;;;1.30;;
58208;SDS011;44006;52.028;4.696;2024-01-15T08:01:13;7.03;;;1.27;;
58208;SDS011;44006;52.028;4.696;2024-01-15T08:03:38;7.93;;;1.33;;
58208;SDS011;44006;52.028;4.696;2024-01-15T08:06:05;13.00;;;1.80;;
58208;SDS011;44006;52.028;4.696;2024-01-15T08:08:30;9.63;;;1.40;;
58208;SDS011;44006;52.028;4.696;2024-01-15T08:10:56;12.25;;;1.48;;
58208;SDS011;44006;52.028;4.696;2024-01-15T08:13:21;11.10;;;1.80;;
58208;SDS011;44006;52.028;4.696;2024-01-15T08:15:46;10.55;;;1.70;;
58208;SDS011;44006;52.028;4.696;2024-01-15T08:18:13;6.57;;;1.40;;
58208;SDS011;44006;52.028;4.696;2024-01-15T08:20:38;8.15;;;1.83;;
58208;SDS011;44006;52.028;4.696;2024-01-15T08:23:03;9.90;;;2.10;;
58208;SDS011;44006;52.028;4.696;2024-01-15T08:25:29;12.43;;;2.63;;
58208;SDS011;44006;52.028;4.696;2024-01-15T08:27:55;12.80;;;2.08;;
58208;SDS011;44006;52.028;4.696;2024-01-15T08:30:21;16.05;;;2.33;;
58208;SDS011;44006;52.028;4.696;2024-01-15T08:32:49;11.10;;;1.90;;
58208;SDS011;44006;52.028;4.696;2024-01-15T08:35:15;17.38;;;2.15;;
58208;SDS011;44006;52.028;4.696;2024-01-15T08:37:40;17.67;;;2.35;;
58208;SDS011;44006;52.028;4.696;2024-01-15T08:40:06;16.00;;;2.35;;
58208;SDS011;44006;52.028;4.696;2024-01-15T08:42:31;15.90;;;2.15;;
58208;SDS011;44006;52.028;4.696;2024-01-15T08:44:56;15.95;;;2.15;;
58208;SDS011;44006;52.028;4.696;2024-01-15T08:47:22;18.67;;;2.13;;
58208;SDS011;44006;52.028;4.696;2024-01-15T08:49:47;18.50;;;2.10;;
58208;SDS011;44006;52.028;4.696;2024-01-15T08:52:12;19.52;;;1.88;;
58208;SDS011;44006;52.028;4.696;2024-01-15T08:54:38;15.15;;;2.15;;
58208;SDS011;44006;52.028;4.696;2024-01-15T08:57:04;16.50;;;1.60;;
58208;SDS011;44006;52.028;4.696;2024-01-15T08:59:29;11.82;;;1.50;;
58208;SDS011;44006;52.028;4.696;2024-01-15T09:01:54;11.75;;;1.83;;
58208;SDS011;44006;52.028;4.696;2024-01-15T09:04:22;15.20;;;1.75;;
58208;SDS011;44006;52.028;4.696;2024-01-15T09:06:47;11.82;;;1.50;;
58208;SDS011;44006;52.028;4.696;2024-01-15T09:09:13;9.75;;;1.30;;
58208;SDS011;44006;52.028;4.696;2024-01-15T09:11:41;7.15;;;1.10;;
58208;SDS011;44006;52.028;4.696;2024-01-15T09:14:07;8.30;;;1.15;;
58208;SDS011;44006;52.028;4.696;2024-01-15T09:16:33;6.13;;;0.80;;
58208;SDS011;44006;52.028;4.696;2024-01-15T09:18:59;8.75;;;1.15;;
58208;SDS011;44006;52.028;4.696;2024-01-15T09:21:25;10.32;;;1.40;;
58208;SDS011;44006;52.028;4.696;2024-01-15T09:23:51;10.38;;;1.23;;
58208;SDS011;44006;52.028;4.696;2024-01-15T09:26:16;7.50;;;1.33;;
58208;SDS011;44006;52.028;4.696;2024-01-15T09:28:41;9.07;;;1.00;;
58208;SDS011;44006;52.028;4.696;2024-01-15T09:31:10;8.82;;;1.05;;
58208;SDS011;44006;52.028;4.696;2024-01-15T09:33:36;12.23;;;1.42;;
58208;SDS011;44006;52.028;4.696;2024-01-15T09:36:04;13.30;;;1.33;;
58208;SDS011;44006;52.028;4.696;2024-01-15T09:38:30;11.60;;;1.40;;
58208;SDS011;44006;52.028;4.696;2024-01-15T09:40:56;6.78;;;1.13;;
58208;SDS011;44006;52.028;4.696;2024-01-15T09:43:22;11.65;;;1.55;;
58208;SDS011;44006;52.028;4.696;2024-01-15T09:45:47;11.30;;;1.75;;
58208;SDS011;44006;52.028;4.696;2024-01-15T09:48:14;14.88;;;1.60;;
58208;SDS011;44006;52.028;4.696;2024-01-15T09:50:39;14.75;;;1.83;;
58208;SDS011;44006;52.028;4.696;2024-01-15T09:53:05;8.05;;;1.27;;
58208;SDS011;44006;52.028;4.696;2024-01-15T09:55:30;13.00;;;1.42;;
58208;SDS011;44006;52.028;4.696;2024-01-15T09:57:59;9.43;;;1.20;;
58208;SDS011;44006;52.028;4.696;2024-01-15T10:00:27;11.05;;;1.20;;
58208;SDS011;44006;52.028;4.696;2024-01-15T10:02:52;7.65;;;1.17;;
58208;SDS011;44006;52.028;4.696;2024-01-15T10:05:18;10.23;;;1.50;;
58208;SDS011;44006;52.028;4.696;2024-01-15T10:07:43;13.38;;;1.40;;
58208;SDS011;44006;52.028;4.696;2024-01-15T10:10:10;9.15;;;1.25;;
58208;SDS011;44006;52.028;4.696;2024-01-15T10:12:35;14.80;;;1.33;;
58208;SDS011;44006;52.028;4.696;2024-01-15T10:15:01;5.50;;;0.95;;
58208;SDS011;44006;52.028;4.696;2024-01-15T10:17:26;9.70;;;1.33;;
58208;SDS011;44006;52.028;4.696;2024-01-15T10:19:53;9.50;;;0.98;;
58208;SDS011;44006;52.028;4.696;2024-01-15T10:22:18;10.73;;;1.30;;
58208;SDS011;44006;52.028;4.696;2024-01-15T10:24:43;9.48;;;1.40;;
58208;SDS011;44006;52.028;4.696;2024-01-15T10:27:09;12.23;;;1.80;;
58208;SDS011;44006;52.028;4.696;2024-01-15T10:29:34;10.40;;;1.58;;
58208;SDS011;44006;52.028;4.696;2024-01-15T10:32:01;5.70;;;1.23;;
58208;SDS011;44006;52.028;4.696;2024-01-15T10:34:26;12.13;;;1.42;;
58208;SDS011;44006;52.028;4.696;2024-01-15T10:36:52;11.57;;;1.20;;
58208;SDS011;44006;52.028;4.696;2024-01-15T10:39:21;13.90;;;1.58;;
58208;SDS011;44006;52.028;4.696;2024-01-15T10:41:50;4.65;;;1.20;;
58208;SDS011;44006;52.028;4.696;2024-01-15T10:44:17;4.63;;;0.80;;
58208;SDS011;44006;52.028;4.696;2024-01-15T10:46:43;6.63;;;1.00;;
58208;SDS011;44006;52.028;4.696;2024-01-15T10:49:08;7.18;;;1.10;;
58208;SDS011;44006;52.028;4.696;2024-01-15T10:51:34;3.78;;;0.90;;
58208;SDS011;44006;52.028;4.696;2024-01-15T10:53:59;6.75;;;1.17;;
58208;SDS011;44006;52.028;4.696;2024-01-15T10:56:25;9.13;;;0.90;;
58208;SDS011;44006;52.028;4.696;2024-01-15T10:58:52;7.65;;;1.33;;
58208;SDS011;44006;52.028;4.696;2024-01-15T11:01:19;8.50;;;1.05;;
58208;SDS011;44006;52.028;4.696;2024-01-15T11:03:45;7.57;;;1.38;;
58208;SDS011;44006;52.028;4.696;2024-01-15T11:06:18;6.72;;;1.27;;
58208;SDS011;44006;52.028;4.696;2024-01-15T11:08:50;11.55;;;1.27;;
58208;SDS011;44006;52.028;4.696;2024-01-15T11:11:20;15.32;;;1.60;;
58208;SDS011;44006;52.028;4.696;2024-01-15T11:13:49;12.60;;;1.67;;
58208;SDS011;44006;52.028;4.696;2024-01-15T11:16:17;12.70;;;1.50;;
58208;SDS011;44006;52.028;4.696;2024-01-15T11:18:43;15.18;;;1.90;;
58208;SDS011;44006;52.028;4.696;2024-01-15T11:26:15;16.00;;;1.75;;
58208;SDS011;44006;52.028;4.696;2024-01-15T11:28:51;6.95;;;1.38;;
58208;SDS011;44006;52.028;4.696;2024-01-15T11:31:16;14.70;;;1.50;;
58208;SDS011;44006;52.028;4.696;2024-01-15T11:33:47;15.07;;;1.63;;
58208;SDS011;44006;52.028;4.696;2024-01-15T11:36:13;4.18;;;0.80;;
58208;SDS011;44006;52.028;4.696;2024-01-15T11:38:38;3.95;;;0.70;;
58208;SDS011;44006;52.028;4.696;2024-01-15T11:41:07;3.80;;;0.70;;
58208;SDS011;44006;52.028;4.696;2024-01-15T11:43:38;7.93;;;0.70;;
58208;SDS011;44006;52.028;4.696;2024-01-15T11:46:03;5.07;;;0.60;;
58208;SDS011;44006;52.028;4.696;2024-01-15T11:48:29;3.83;;;0.68;;
58208;SDS011;44006;52.028;4.696;2024-01-15T11:51:03;6.40;;;1.10;;
58208;SDS011;44006;52.028;4.696;2024-01-15T11:53:32;5.43;;;1.00;;
58208;SDS011;44006;52.028;4.696;2024-01-15T11:55:59;7.88;;;1.35;;
58208;SDS011;44006;52.028;4.696;2024-01-15T11:58:26;7.75;;;1.30;;
58208;SDS011;44006;52.028;4.696;2024-01-15T12:00:52;10.18;;;1.33;;
58208;SDS011;44006;52.028;4.696;2024-01-15T12:03:20;9.77;;;1.40;;
58208;SDS011;44006;52.028;4.696;2024-01-15T12:05:45;11.73;;;1.33;;
58208;SDS011;44006;52.028;4.696;2024-01-15T12:08:12;7.47;;;1.08;;
58208;SDS011;44006;52.028;4.696;2024-01-15T12:10:40;13.00;;;1.85;;
58208;SDS011;44006;52.028;4.696;2024-01-15T12:15:32;8.45;;;1.33;;
58208;SDS011;44006;52.028;4.696;2024-01-15T12:18:01;10.10;;;1.38;;
58208;SDS011;44006;52.028;4.696;2024-01-15T12:20:28;12.95;;;1.52;;
58208;SDS011;44006;52.028;4.696;2024-01-15T12:22:53;13.13;;;1.50;;
58208;SDS011;44006;52.028;4.696;2024-01-15T12:25:20;10.88;;;1.38;;
58208;SDS011;44006;52.028;4.696;2024-01-15T12:27:45;10.80;;;1.52;;
58208;SDS011;44006;52.028;4.696;2024-01-15T12:30:11;11.05;;;1.63;;
58208;SDS011;44006;52.028;4.696;2024-01-15T12:32:37;12.02;;;1.50;;
58208;SDS011;44006;52.028;4.696;2024-01-15T12:35:02;13.52;;;1.90;;
58208;SDS011;44006;52.028;4.696;2024-01-15T12:37:29;7.82;;;1.40;;
58208;SDS011;44006;52.028;4.696;2024-01-15T12:39:54;9.90;;;1.48;;
58208;SDS011;44006;52.028;4.696;2024-01-15T12:42:20;12.93;;;1.75;;
58208;SDS011;44006;52.028;4.696;2024-01-15T12:44:46;10.65;;;1.45;;
58208;SDS011;44006;52.028;4.696;2024-01-15T12:47:11;14.85;;;2.05;;
58208;SDS011;44006;52.028;4.696;2024-01-15T12:49:37;13.50;;;1.38;;
58208;SDS011;44006;52.028;4.696;2024-01-15T12:52:03;13.57;;;1.50;;
58208;SDS011;44006;52.028;4.696;2024-01-15T12:54:29;11.43;;;1.52;;
58208;SDS011;44006;52.028;4.696;2024-01-15T12:56:54;11.90;;;1.90;;
58208;SDS011;44006;52.028;4.696;2024-01-15T12:59:19;13.48;;;1.80;;
58208;SDS011;44006;52.028;4.696;2024-01-15T13:01:45;11.38;;;1.77;;
58208;SDS011;44006;52.028;4.696;2024-01-15T13:04:11;11.27;;;2.20;;
58208;SDS011;44006;52.028;4.696;2024-01-15T13:06:38;11.50;;;1.92;;
58208;SDS011;44006;52.028;4.696;2024-01-15T13:09:03;13.98;;;1.95;;
58208;SDS011;44006;52.028;4.696;2024-01-15T13:11:32;14.93;;;2.40;;
58208;SDS011;44006;52.028;4.696;2024-01-15T13:13:57;14.30;;;1.90;;
58208;SDS011;44006;52.028;4.696;2024-01-15T13:16:23;17.40;;;2.22;;
58208;SDS011;44006;52.028;4.696;2024-01-15T13:18:48;14.65;;;2.03;;
58208;SDS011;44006;52.028;4.696;2024-01-15T13:21:15;11.48;;;1.88;;
58208;SDS011;44006;52.028;4.696;2024-01-15T13:23:47;11.50;;;1.50;;
58208;SDS011;44006;52.028;4.696;2024-01-15T13:26:13;16.25;;;1.33;;
58208;SDS011;44006;52.028;4.696;2024-01-15T13:28:39;7.47;;;1.20;;
58208;SDS011;44006;52.028;4.696;2024-01-15T13:31:04;7.40;;;1.05;;
58208;SDS011;44006;52.028;4.696;2024-01-15T13:33:30;9.63;;;1.67;;
58208;SDS011;44006;52.028;4.696;2024-01-15T13:35:56;7.57;;;1.27;;
58208;SDS011;44006;52.028;4.696;2024-01-15T13:38:23;8.43;;;1.33;;
58208;SDS011;44006;52.028;4.696;2024-01-15T13:40:49;5.80;;;1.00;;
58208;SDS011;44006;52.028;4.696;2024-01-15T13:43:15;6.40;;;0.88;;
58208;SDS011;44006;52.028;4.696;2024-01-15T13:45:41;3.75;;;0.68;;
58208;SDS011;44006;52.028;4.696;2024-01-15T13:48:07;3.40;;;0.70;;
58208;SDS011;44006;52.028;4.696;2024-01-15T13:50:33;7.30;;;1.08;;
58208;SDS011;44006;52.028;4.696;2024-01-15T13:52:59;7.68;;;1.38;;
58208;SDS011;44006;52.028;4.696;2024-01-15T13:55:26;10.13;;;1.55;;
58208;SDS011;44006;52.028;4.696;2024-01-15T13:57:51;12.75;;;1.80;;
58208;SDS011;44006;52.028;4.696;2024-01-15T14:00:16;9.57;;;1.70;;
58208;SDS011;44006;52.028;4.696;2024-01-15T14:02:45;11.85;;;2.00;;
58208;SDS011;44006;52.028;4.696;2024-01-15T14:05:11;11.30;;;1.98;;
58208;SDS011;44006;52.028;4.696;2024-01-15T14:07:40;10.02;;;1.60;;
58208;SDS011;44006;52.028;4.696;2024-01-15T14:10:06;17.90;;;2.15;;
58208;SDS011;44006;52.028;4.696;2024-01-15T14:12:33;18.20;;;1.92;;
58208;SDS011;44006;52.028;4.696;2024-01-15T14:14:58;18.50;;;2.67;;
58208;SDS011;44006;52.028;4.696;2024-01-15T14:17:24;20.00;;;2.13;;
58208;SDS011;44006;52.028;4.696;2024-01-15T14:19:49;19.08;;;2.67;;
58208;SDS011;44006;52.028;4.696;2024-01-15T14:22:14;19.40;;;2.47;;
58208;SDS011;44006;52.028;4.696;2024-01-15T14:24:40;23.02;;;2.55;;
58208;SDS011;44006;52.028;4.696;2024-01-15T14:27:06;18.40;;;2.30;;
58208;SDS011;44006;52.028;4.696;2024-01-15T14:29:32;17.58;;;2.67;;
58208;SDS011;44006;52.028;4.696;2024-01-15T14:31:57;15.25;;;2.55;;
58208;SDS011;44006;52.028;4.696;2024-01-15T14:34:23;13.50;;;2.22;;
58208;SDS011;44006;52.028;4.696;2024-01-15T14:36:54;11.75;;;2.08;;
58208;SDS011;44006;52.028;4.696;2024-01-15T14:39:20;19.48;;;2.13;;